sensor_id;sensor_type;location;lat;lon;timestamp;pressure;altitude;pressure_sealevel;temperature;humidity
6500;BME280;3283;52.330;9.772;2023-02-28T09:19:35;102490.88;;;3.09;76.54
6500;BME280;3283;52.330;9.772;2023-02-28T09:22:01;102489.16;;;3.27;75.17
6500;BME280;3283;52.330;9.772;2023-02-28T09:24:26;102488.78;;;3.02;75.06
6500;BME280;3283;52.330;9.772;2023-02-28T09:26:52;102485.97;;;3.15;75.99
6500;BME280;3283;52.330;9.772;2023-02-28T09:29:18;102488.19;;;3.25;75.22
6500;BME280;3283;52.330;9.772;2023-02-28T09:31:43;102488.75;;;3.38;74.12
6500;BME280;3283;52.330;9.772;2023-02-28T09:34:08;102490.06;;;3.47;73.68
6500;BME280;3283;52.330;9.772;2023-02-28T09:36:35;102487.66;;;3.52;73.91
6500;BME280;3283;52.330;9.772;2023-02-28T09:39:02;102485.06;;;3.71;73.06
6500;BME280;3283;52.330;9.772;2023-02-28T09:41:32;102488.13;;;4.01;72.06
6500;BME280;3283;52.330;9.772;2023-02-28T09:44:04;102481.56;;;4.09;71.57
6500;BME280;3283;52.330;9.772;2023-02-28T09:46:35;102486.56;;;4.24;71.02
6500;BME280;3283;52.330;9.772;2023-02-28T17:45:06;102362.66;;;2.74;70.37
6500;BME280;3283;52.330;9.772;2023-02-28T17:47:31;102361.53;;;2.87;69.91
6500;BME280;3283;52.330;9.772;2023-02-28T17:49:56;102357.38;;;2.91;69.34
6500;BME280;3283;52.330;9.772;2023-02-28T17:52:22;102362.78;;;2.95;69.67
6500;BME280;3283;52.330;9.772;2023-02-28T17:54:47;102369.56;;;2.92;69.70
6500;BME280;3283;52.330;9.772;2023-02-28T17:57:15;102367.72;;;2.89;69.89
6500;BME280;3283;52.330;9.772;2023-02-28T17:59:41;102371.06;;;2.87;69.85
6500;BME280;3283;52.330;9.772;2023-02-28T18:02:07;102376.41;;;2.90;70.52
6500;BME280;3283;52.330;9.772;2023-02-28T18:04:34;102376.19;;;2.85;71.16
6500;BME280;3283;52.330;9.772;2023-02-28T18:06:59;102366.91;;;2.72;71.46
6500;BME280;3283;52.330;9.772;2023-02-28T18:09:26;102370.03;;;2.65;71.78
6500;BME280;3283;52.330;9.772;2023-02-28T18:11:53;102362.31;;;2.67;71.90
6500;BME280;3283;52.330;9.772;2023-02-28T18:14:20;102368.41;;;2.67;72.09
6500;BME280;3283;52.330;9.772;2023-02-28T18:16:47;102371.69;;;2.63;72.15
6500;BME280;3283;52.330;9.772;2023-02-28T18:19:13;102376.59;;;2.57;72.75
6500;BME280;3283;52.330;9.772;2023-02-28T18:21:44;102377.47;;;2.58;72.85
6500;BME280;3283;52.330;9.772;2023-02-28T18:24:10;102369.91;;;2.62;72.22
6500;BME280;3283;52.330;9.772;2023-02-28T18:26:36;102374.06;;;2.59;72.25
6500;BME280;3283;52.330;9.772;2023-02-28T18:29:03;102378.53;;;2.61;72.25
6500;BME280;3283;52.330;9.772;2023-02-28T18:31:29;102378.38;;;2.58;71.97
6500;BME280;3283;52.330;9.772;2023-02-28T18:33:56;102375.84;;;2.60;72.42
6500;BME280;3283;52.330;9.772;2023-02-28T18:36:21;102368.66;;;2.54;72.14
6500;BME280;3283;52.330;9.772;2023-02-28T18:38:48;102373.75;;;2.53;72.00
6500;BME280;3283;52.330;9.772;2023-02-28T18:41:15;102372.75;;;2.49;72.54
6500;BME280;3283;52.330;9.772;2023-02-28T18:43:40;102364.59;;;2.41;72.54
6500;BME280;3283;52.330;9.772;2023-02-28T18:46:08;102375.69;;;2.39;73.17
6500;BME280;3283;52.330;9.772;2023-02-28T18:48:33;102368.41;;;2.32;72.96
6500;BME280;3283;52.330;9.772;2023-02-28T18:51:05;102357.81;;;2.27;72.95
6500;BME280;3283;52.330;9.772;2023-02-28T18:53:33;102374.13;;;2.25;72.73
6500;BME280;3283;52.330;9.772;2023-02-28T18:56:00;102362.47;;;2.16;73.61
6500;BME280;3283;52.330;9.772;2023-02-28T18:58:25;102369.97;;;2.10;73.74
6500;BME280;3283;52.330;9.772;2023-02-28T19:00:51;102363.50;;;2.02;73.94
6500;BME280;3283;52.330;9.772;2023-02-28T19:03:17;102357.34;;;2.00;74.61
6500;BME280;3283;52.330;9.772;2023-02-28T19:05:42;102369.88;;;1.91;74.65
6500;BME280;3283;52.330;9.772;2023-02-28T19:08:07;102373.28;;;1.90;74.96
6500;BME280;3283;52.330;9.772;2023-02-28T19:10:33;102365.28;;;1.85;75.63
6500;BME280;3283;52.330;9.772;2023-02-28T19:12:58;102365.19;;;1.84;75.89
6500;BME280;3283;52.330;9.772;2023-02-28T19:15:24;102370.22;;;1.81;76.26
6500;BME280;3283;52.330;9.772;2023-02-28T19:17:49;102368.38;;;1.78;76.54
6500;BME280;3283;52.330;9.772;2023-02-28T19:20:15;102367.63;;;1.81;76.24
6500;BME280;3283;52.330;9.772;2023-02-28T19:22:41;102365.78;;;1.78;76.65
6500;BME280;3283;52.330;9.772;2023-02-28T19:25:07;102360.50;;;1.77;76.55
6500;BME280;3283;52.330;9.772;2023-02-28T19:27:32;102358.00;;;1.78;76.31
6500;BME280;3283;52.330;9.772;2023-02-28T19:29:58;102357.09;;;1.78;76.45
6500;BME280;3283;52.330;9.772;2023-02-28T19:32:24;102359.63;;;1.76;76.38
6500;BME280;3283;52.330;9.772;2023-02-28T19:34:50;102360.09;;;1.69;76.10
6500;BME280;3283;52.330;9.772;2023-02-28T19:37:16;102362.88;;;1.72;76.28
6500;BME280;3283;52.330;9.772;2023-02-28T19:39:44;102361.09;;;1.71;76.09
6500;BME280;3283;52.330;9.772;2023-02-28T19:42:13;102357.44;;;1.68;75.70
6500;BME280;3283;52.330;9.772;2023-02-28T19:44:39;102361.97;;;1.72;75.60
6500;BME280;3283;52.330;9.772;2023-02-28T19:47:05;102357.50;;;1.69;75.71
6500;BME280;3283;52.330;9.772;2023-02-28T19:49:30;102359.94;;;1.66;75.75
6500;BME280;3283;52.330;9.772;2023-02-28T19:51:56;102365.22;;;1.68;75.25
6500;BME280;3283;52.330;9.772;2023-02-28T19:54:23;102343.84;;;1.55;75.33
6500;BME280;3283;52.330;9.772;2023-02-28T19:56:48;102360.78;;;1.65;75.09
6500;BME280;3283;52.330;9.772;2023-02-28T19:59:13;102375.13;;;1.58;76.17
6500;BME280;3283;52.330;9.772;2023-02-28T20:01:39;102376.75;;;1.56;76.91
6500;BME280;3283;52.330;9.772;2023-02-28T20:04:04;102383.41;;;1.51;77.01
6500;BME280;3283;52.330;9.772;2023-02-28T20:06:31;102380.97;;;1.54;76.60
6500;BME280;3283;52.330;9.772;2023-02-28T20:08:57;102378.53;;;1.57;76.02
6500;BME280;3283;52.330;9.772;2023-02-28T20:11:24;102386.25;;;1.56;76.09
